sensor_id;sensor_type;location;lat;lon;timestamp;P1;durP1;ratioP1;P2;durP2;ratioP2
46110;SDS011;31849;55.992;37.252;2023-08-30T00:04:21;21.27;;;13.02;;
46110;SDS011;31849;55.992;37.252;2023-08-30T00:09:24;18.67;;;12.20;;
46110;SDS011;31849;55.992;37.252;2023-08-30T00:14:28;16.00;;;11.30;;
46110;SDS011;31849;55.992;37.252;2023-08-30T00:19:33;12.63;;;9.63;;
46110;SDS011;31849;55.992;37.252;2023-08-30T00:24:36;12.15;;;10.02;;
46110;SDS011;31849;55.992;37.252;2023-08-30T00:29:40;10.90;;;8.93;;
46110;SDS011;31849;55.992;37.252;2023-08-30T00:34:45;12.80;;;9.77;;
46110;SDS011;31849;55.992;37.252;2023-08-30T00:39:48;12.40;;;9.68;;
46110;SDS011;31849;55.992;37.252;2023-08-30T00:44:52;12.90;;;9.13;;
46110;SDS011;31849;55.992;37.252;2023-08-30T00:49:57;10.98;;;8.95;;
46110;SDS011;31849;55.992;37.252;2023-08-30T00:55:01;11.75;;;9.60;;
46110;SDS011;31849;55.992;37.252;2023-08-30T01:00:05;14.40;;;8.93;;
46110;SDS011;31849;55.992;37.252;2023-08-30T01:05:11;13.13;;;9.23;;
46110;SDS011;31849;55.992;37.252;2023-08-30T01:10:16;12.30;;;8.52;;
46110;SDS011;31849;55.992;37.252;2023-08-30T01:15:20;14.23;;;9.20;;
46110;SDS011;31849;55.992;37.252;2023-08-30T01:20:27;11.90;;;9.20;;
46110;SDS011;31849;55.992;37.252;2023-08-30T01:25:33;12.43;;;9.38;;
46110;SDS011;31849;55.992;37.252;2023-08-30T01:30:46;11.38;;;8.70;;
46110;SDS011;31849;55.992;37.252;2023-08-30T01:35:52;11.85;;;8.68;;
46110;SDS011;31849;55.992;37.252;2023-08-30T01:40:57;11.25;;;8.35;;
46110;SDS011;31849;55.992;37.252;2023-08-30T01:46:03;14.02;;;9.07;;
46110;SDS011;31849;55.992;37.252;2023-08-30T01:51:08;13.90;;;9.07;;
46110;SDS011;31849;55.992;37.252;2023-08-30T01:56:13;14.95;;;8.57;;
46110;SDS011;31849;55.992;37.252;2023-08-30T02:01:17;15.68;;;9.57;;
46110;SDS011;31849;55.992;37.252;2023-08-30T02:06:21;17.90;;;10.30;;
46110;SDS011;31849;55.992;37.252;2023-08-30T02:11:30;15.18;;;9.27;;
46110;SDS011;31849;55.992;37.252;2023-08-30T02:16:37;14.38;;;9.32;;
46110;SDS011;31849;55.992;37.252;2023-08-30T02:21:41;14.60;;;9.02;;
46110;SDS011;31849;55.992;37.252;2023-08-30T02:26:45;17.00;;;9.60;;
46110;SDS011;31849;55.992;37.252;2023-08-30T02:31:50;15.02;;;9.68;;
46110;SDS011;31849;55.992;37.252;2023-08-30T02:36:54;16.83;;;10.30;;
46110;SDS011;31849;55.992;37.252;2023-08-30T02:41:57;23.35;;;10.98;;
46110;SDS011;31849;55.992;37.252;2023-08-30T02:47:02;20.77;;;11.27;;
46110;SDS011;31849;55.992;37.252;2023-08-30T02:52:06;18.95;;;10.23;;
46110;SDS011;31849;55.992;37.252;2023-08-30T02:57:09;15.20;;;8.93;;
46110;SDS011;31849;55.992;37.252;2023-08-30T03:02:15;13.43;;;8.83;;
46110;SDS011;31849;55.992;37.252;2023-08-30T03:07:18;14.38;;;9.20;;
46110;SDS011;31849;55.992;37.252;2023-08-30T03:12:22;13.27;;;8.30;;
46110;SDS011;31849;55.992;37.252;2023-08-30T03:17:26;13.52;;;8.07;;
46110;SDS011;31849;55.992;37.252;2023-08-30T03:22:33;13.63;;;9.05;;
46110;SDS011;31849;55.992;37.252;2023-08-30T03:27:37;18.30;;;9.15;;
46110;SDS011;31849;55.992;37.252;2023-08-30T03:32:42;13.77;;;8.25;;
46110;SDS011;31849;55.992;37.252;2023-08-30T03:37:45;15.48;;;8.65;;
46110;SDS011;31849;55.992;37.252;2023-08-30T03:42:49;13.30;;;8.43;;
46110;SDS011;31849;55.992;37.252;2023-08-30T03:47:53;10.43;;;8.13;;
46110;SDS011;31849;55.992;37.252;2023-08-30T03:52:57;16.50;;;8.90;;
46110;SDS011;31849;55.992;37.252;2023-08-30T03:58:01;10.07;;;7.70;;
46110;SDS011;31849;55.992;37.252;2023-08-30T04:03:07;14.98;;;10.07;;
46110;SDS011;31849;55.992;37.252;2023-08-30T04:08:12;13.57;;;10.50;;
46110;SDS011;31849;55.992;37.252;2023-08-30T04:13:16;14.47;;;10.20;;
46110;SDS011;31849;55.992;37.252;2023-08-30T04:18:21;12.27;;;9.50;;
46110;SDS011;31849;55.992;37.252;2023-08-30T04:23:24;11.30;;;8.80;;
46110;SDS011;31849;55.992;37.252;2023-08-30T04:28:28;12.40;;;8.05;;
46110;SDS011;31849;55.992;37.252;2023-08-30T04:33:32;11.48;;;9.43;;
46110;SDS011;31849;55.992;37.252;2023-08-30T04:38:36;11.10;;;9.10;;
46110;SDS011;31849;55.992;37.252;2023-08-30T04:43:49;9.27;;;8.00;;
46110;SDS011;31849;55.992;37.252;2023-08-30T04:48:54;12.30;;;8.27;;
46110;SDS011;31849;55.992;37.252;2023-08-30T04:53:57;8.70;;;7.68;;
46110;SDS011;31849;55.992;37.252;2023-08-30T04:59:01;10.77;;;8.10;;
46110;SDS011;31849;55.992;37.252;2023-08-30T05:04:07;6.57;;;5.80;;
46110;SDS011;31849;55.992;37.252;2023-08-30T05:09:10;7.07;;;5.80;;
46110;SDS011;31849;55.992;37.252;2023-08-30T05:14:14;7.07;;;5.90;;
46110;SDS011;31849;55.992;37.252;2023-08-30T05:19:19;6.10;;;5.30;;
46110;SDS011;31849;55.992;37.252;2023-08-30T05:24:22;7.28;;;5.85;;
46110;SDS011;31849;55.992;37.252;2023-08-30T05:29:28;6.45;;;5.18;;
46110;SDS011;31849;55.992;37.252;2023-08-30T05:34:33;8.25;;;6.13;;
46110;SDS011;31849;55.992;37.252;2023-08-30T05:39:37;9.13;;;6.03;;
46110;SDS011;31849;55.992;37.252;2023-08-30T05:44:40;6.10;;;5.00;;
46110;SDS011;31849;55.992;37.252;2023-08-30T05:49:45;6.10;;;4.97;;
46110;SDS011;31849;55.992;37.252;2023-08-30T05:54:49;5.57;;;4.32;;
46110;SDS011;31849;55.992;37.252;2023-08-30T05:59:53;5.53;;;4.50;;
46110;SDS011;31849;55.992;37.252;2023-08-30T06:04:58;7.28;;;4.45;;
46110;SDS011;31849;55.992;37.252;2023-08-30T06:10:02;4.97;;;3.90;;
46110;SDS011;31849;55.992;37.252;2023-08-30T06:15:06;6.68;;;3.40;;
46110;SDS011;31849;55.992;37.252;2023-08-30T06:20:13;6.00;;;4.00;;
46110;SDS011;31849;55.992;37.252;2023-08-30T06:25:18;4.68;;;3.60;;
46110;SDS011;31849;55.992;37.252;2023-08-30T06:30:21;4.78;;;3.50;;
46110;SDS011;31849;55.992;37.252;2023-08-30T06:40:30;3.78;;;3.13;;
46110;SDS011;31849;55.992;37.252;2023-08-30T06:50:38;3.50;;;3.03;;
46110;SDS011;31849;55.992;37.252;2023-08-30T06:55:41;5.78;;;3.17;;
46110;SDS011;31849;55.992;37.252;2023-08-30T07:00:45;3.22;;;2.67;;
46110;SDS011;31849;55.992;37.252;2023-08-30T07:05:51;3.65;;;2.90;;
46110;SDS011;31849;55.992;37.252;2023-08-30T07:10:55;3.83;;;2.83;;
46110;SDS011;31849;55.992;37.252;2023-08-30T07:15:59;3.60;;;2.63;;
46110;SDS011;31849;55.992;37.252;2023-08-30T07:21:04;7.70;;;3.00;;
46110;SDS011;31849;55.992;37.252;2023-08-30T07:26:08;4.38;;;2.58;;
46110;SDS011;31849;55.992;37.252;2023-08-30T07:31:11;3.58;;;2.78;;
46110;SDS011;31849;55.992;37.252;2023-08-30T07:36:18;5.53;;;2.83;;
46110;SDS011;31849;55.992;37.252;2023-08-30T07:41:28;4.25;;;2.80;;
46110;SDS011;31849;55.992;37.252;2023-08-30T07:46:32;4.88;;;2.58;;
46110;SDS011;31849;55.992;37.252;2023-08-30T07:56:40;3.55;;;2.58;;
46110;SDS011;31849;55.992;37.252;2023-08-30T08:01:44;4.43;;;2.75;;
46110;SDS011;31849;55.992;37.252;2023-08-30T08:06:49;3.72;;;2.80;;
46110;SDS011;31849;55.992;37.252;2023-08-30T08:11:57;4.70;;;2.90;;
46110;SDS011;31849;55.992;37.252;2023-08-30T08:17:01;5.50;;;3.08;;
46110;SDS011;31849;55.992;37.252;2023-08-30T08:22:07;3.17;;;2.78;;
46110;SDS011;31849;55.992;37.252;2023-08-30T08:27:10;3.83;;;3.00;;
46110;SDS011;31849;55.992;37.252;2023-08-30T08:32:14;4.13;;;2.72;;
46110;SDS011;31849;55.992;37.252;2023-08-30T08:37:20;4.20;;;2.60;;
46110;SDS011;31849;55.992;37.252;2023-08-30T08:42:23;4.38;;;3.33;;
46110;SDS011;31849;55.992;37.252;2023-08-30T08:47:27;4.55;;;2.97;;
46110;SDS011;31849;55.992;37.252;2023-08-30T08:52:34;5.65;;;4.18;;
46110;SDS011;31849;55.992;37.252;2023-08-30T08:57:58;3.20;;;2.85;;
46110;SDS011;31849;55.992;37.252;2023-08-30T09:03:03;6.10;;;2.83;;
46110;SDS011;31849;55.992;37.252;2023-08-30T09:08:12;3.90;;;3.00;;
46110;SDS011;31849;55.992;37.252;2023-08-30T09:13:18;4.00;;;3.40;;
46110;SDS011;31849;55.992;37.252;2023-08-30T09:18:24;4.60;;;2.72;;
46110;SDS011;31849;55.992;37.252;2023-08-30T09:23:31;3.92;;;3.05;;
46110;SDS011;31849;55.992;37.252;2023-08-30T09:28:41;4.95;;;2.70;;
46110;SDS011;31849;55.992;37.252;2023-08-30T09:33:48;4.70;;;2.60;;
46110;SDS011;31849;55.992;37.252;2023-08-30T09:38:53;5.82;;;3.10;;
46110;SDS011;31849;55.992;37.252;2023-08-30T09:44:00;4.72;;;3.00;;
46110;SDS011;31849;55.992;37.252;2023-08-30T09:49:17;4.20;;;3.00;;
46110;SDS011;31849;55.992;37.252;2023-08-30T09:54:23;4.28;;;2.80;;
46110;SDS011;31849;55.992;37.252;2023-08-30T09:59:39;3.85;;;2.85;;
46110;SDS011;31849;55.992;37.252;2023-08-30T10:04:44;4.45;;;2.80;;
46110;SDS011;31849;55.992;37.252;2023-08-30T10:09:51;5.82;;;2.50;;
46110;SDS011;31849;55.992;37.252;2023-08-30T10:15:11;4.53;;;2.80;;
46110;SDS011;31849;55.992;37.252;2023-08-30T10:20:14;3.53;;;2.70;;
46110;SDS011;31849;55.992;37.252;2023-08-30T10:30:24;4.32;;;2.88;;
46110;SDS011;31849;55.992;37.252;2023-08-30T10:35:29;2.95;;;2.45;;
46110;SDS011;31849;55.992;37.252;2023-08-30T10:40:34;4.78;;;2.50;;
46110;SDS011;31849;55.992;37.252;2023-08-30T10:45:57;3.03;;;2.40;;
46110;SDS011;31849;55.992;37.252;2023-08-30T10:51:02;3.30;;;2.53;;
46110;SDS011;31849;55.992;37.252;2023-08-30T10:56:09;3.15;;;2.50;;
46110;SDS011;31849;55.992;37.252;2023-08-30T11:01:14;3.85;;;2.38;;
46110;SDS011;31849;55.992;37.252;2023-08-30T11:06:19;3.65;;;2.70;;
46110;SDS011;31849;55.992;37.252;2023-08-30T11:11:24;6.65;;;2.70;;
46110;SDS011;31849;55.992;37.252;2023-08-30T11:16:28;4.32;;;2.60;;
46110;SDS011;31849;55.992;37.252;2023-08-30T11:21:32;7.53;;;2.60;;
46110;SDS011;31849;55.992;37.252;2023-08-30T11:26:38;4.72;;;2.75;;
46110;SDS011;31849;55.992;37.252;2023-08-30T11:31:42;3.33;;;2.30;;
46110;SDS011;31849;55.992;37.252;2023-08-30T11:36:47;3.50;;;2.40;;
46110;SDS011;31849;55.992;37.252;2023-08-30T11:41:53;3.10;;;2.50;;
46110;SDS011;31849;55.992;37.252;2023-08-30T11:47:03;3.92;;;2.40;;
46110;SDS011;31849;55.992;37.252;2023-08-30T11:52:07;4.35;;;2.38;;
46110;SDS011;31849;55.992;37.252;2023-08-30T11:57:12;4.32;;;2.65;;
46110;SDS011;31849;55.992;37.252;2023-08-30T12:02:16;3.53;;;2.60;;
46110;SDS011;31849;55.992;37.252;2023-08-30T12:07:21;3.20;;;2.40;;
46110;SDS011;31849;55.992;37.252;2023-08-30T12:12:27;5.13;;;2.80;;
46110;SDS011;31849;55.992;37.252;2023-08-30T12:17:34;3.67;;;2.70;;
46110;SDS011;31849;55.992;37.252;2023-08-30T12:22:38;3.45;;;2.80;;
46110;SDS011;31849;55.992;37.252;2023-08-30T12:32:48;3.60;;;2.70;;
46110;SDS011;31849;55.992;37.252;2023-08-30T12:37:51;4.15;;;2.47;;
46110;SDS011;31849;55.992;37.252;2023-08-30T12:42:56;3.25;;;2.40;;
46110;SDS011;31849;55.992;37.252;2023-08-30T12:48:00;3.40;;;2.70;;
46110;SDS011;31849;55.992;37.252;2023-08-30T12:53:04;4.45;;;2.30;;
46110;SDS011;31849;55.992;37.252;2023-08-30T12:58:09;3.55;;;2.20;;
46110;SDS011;31849;55.992;37.252;2023-08-30T13:03:15;3.40;;;2.20;;
46110;SDS011;31849;55.992;37.252;2023-08-30T13:08:19;5.43;;;2.63;;
46110;SDS011;31849;55.992;37.252;2023-08-30T13:13:24;5.35;;;2.55;;
46110;SDS011;31849;55.992;37.252;2023-08-30T13:18:28;3.35;;;2.50;;
46110;SDS011;31849;55.992;37.252;2023-08-30T13:23:31;5.97;;;3.20;;
46110;SDS011;31849;55.992;37.252;2023-08-30T13:28:36;5.15;;;2.70;;
46110;SDS011;31849;55.992;37.252;2023-08-30T13:33:40;4.45;;;3.08;;
46110;SDS011;31849;55.992;37.252;2023-08-30T13:38:43;5.38;;;2.90;;
46110;SDS011;31849;55.992;37.252;2023-08-30T13:43:48;4.10;;;2.90;;
46110;SDS011;31849;55.992;37.252;2023-08-30T13:48:52;6.63;;;2.72;;
46110;SDS011;31849;55.992;37.252;2023-08-30T13:53:55;7.63;;;3.47;;
46110;SDS011;31849;55.992;37.252;2023-08-30T13:59:01;4.70;;;3.05;;
46110;SDS011;31849;55.992;37.252;2023-08-30T14:04:05;5.90;;;3.40;;
46110;SDS011;31849;55.992;37.252;2023-08-30T14:09:09;7.22;;;3.05;;
46110;SDS011;31849;55.992;37.252;2023-08-30T14:14:14;6.40;;;2.85;;
46110;SDS011;31849;55.992;37.252;2023-08-30T14:19:17;4.82;;;3.20;;
46110;SDS011;31849;55.992;37.252;2023-08-30T14:24:21;7.18;;;3.85;;
46110;SDS011;31849;55.992;37.252;2023-08-30T14:29:26;7.28;;;3.70;;
46110;SDS011;31849;55.992;37.252;2023-08-30T14:34:29;6.43;;;3.50;;
46110;SDS011;31849;55.992;37.252;2023-08-30T14:39:33;5.80;;;3.45;;
46110;SDS011;31849;55.992;37.252;2023-08-30T14:44:38;4.57;;;3.50;;
46110;SDS011;31849;55.992;37.252;2023-08-30T14:49:42;6.40;;;2.95;;
46110;SDS011;31849;55.992;37.252;2023-08-30T14:54:45;5.38;;;3.05;;
46110;SDS011;31849;55.992;37.252;2023-08-30T14:59:50;4.53;;;3.17;;
46110;SDS011;31849;55.992;37.252;2023-08-30T15:04:54;7.40;;;3.05;;
46110;SDS011;31849;55.992;37.252;2023-08-30T15:09:57;5.72;;;2.75;;
46110;SDS011;31849;55.992;37.252;2023-08-30T15:15:02;4.90;;;2.55;;
46110;SDS011;31849;55.992;37.252;2023-08-30T15:20:07;5.25;;;2.72;;
46110;SDS011;31849;55.992;37.252;2023-08-30T15:25:11;9.60;;;5.50;;
46110;SDS011;31849;55.992;37.252;2023-08-30T15:30:16;4.30;;;2.50;;
46110;SDS011;31849;55.992;37.252;2023-08-30T15:35:21;4.85;;;2.88;;
46110;SDS011;31849;55.992;37.252;2023-08-30T15:40:24;4.20;;;2.67;;
46110;SDS011;31849;55.992;37.252;2023-08-30T15:45:29;10.68;;;3.03;;
46110;SDS011;31849;55.992;37.252;2023-08-30T15:50:33;3.47;;;2.63;;
46110;SDS011;31849;55.992;37.252;2023-08-30T15:55:36;6.57;;;3.13;;
46110;SDS011;31849;55.992;37.252;2023-08-30T16:00:41;8.18;;;3.33;;
46110;SDS011;31849;55.992;37.252;2023-08-30T16:05:45;5.25;;;3.00;;
46110;SDS011;31849;55.992;37.252;2023-08-30T16:10:51;4.82;;;2.83;;
46110;SDS011;31849;55.992;37.252;2023-08-30T16:15:57;6.45;;;3.38;;
46110;SDS011;31849;55.992;37.252;2023-08-30T16:21:02;6.95;;;3.15;;
46110;SDS011;31849;55.992;37.252;2023-08-30T16:26:05;5.90;;;3.38;;
46110;SDS011;31849;55.992;37.252;2023-08-30T16:31:10;8.27;;;4.70;;
46110;SDS011;31849;55.992;37.252;2023-08-30T16:36:14;9.20;;;4.00;;
46110;SDS011;31849;55.992;37.252;2023-08-30T16:41:18;9.37;;;3.80;;
46110;SDS011;31849;55.992;37.252;2023-08-30T16:46:23;9.18;;;4.45;;
46110;SDS011;31849;55.992;37.252;2023-08-30T16:51:26;7.60;;;4.03;;
46110;SDS011;31849;55.992;37.252;2023-08-30T16:56:30;10.23;;;6.27;;
46110;SDS011;31849;55.992;37.252;2023-08-30T17:01:35;12.52;;;6.25;;
46110;SDS011;31849;55.992;37.252;2023-08-30T17:06:38;11.73;;;6.00;;
46110;SDS011;31849;55.992;37.252;2023-08-30T17:11:42;10.27;;;6.13;;
46110;SDS011;31849;55.992;37.252;2023-08-30T17:16:47;12.48;;;6.43;;
46110;SDS011;31849;55.992;37.252;2023-08-30T17:21:51;9.52;;;6.18;;
46110;SDS011;31849;55.992;37.252;2023-08-30T17:26:55;11.30;;;6.20;;
46110;SDS011;31849;55.992;37.252;2023-08-30T17:32:02;12.57;;;6.57;;
46110;SDS011;31849;55.992;37.252;2023-08-30T17:37:06;14.30;;;6.63;;
46110;SDS011;31849;55.992;37.252;2023-08-30T17:42:12;14.55;;;6.85;;
46110;SDS011;31849;55.992;37.252;2023-08-30T17:47:17;16.10;;;7.43;;
46110;SDS011;31849;55.992;37.252;2023-08-30T17:52:20;18.00;;;7.20;;
46110;SDS011;31849;55.992;37.252;2023-08-30T17:57:24;15.87;;;6.90;;
46110;SDS011;31849;55.992;37.252;2023-08-30T18:02:29;14.73;;;6.30;;
46110;SDS011;31849;55.992;37.252;2023-08-30T18:07:33;19.73;;;7.78;;
46110;SDS011;31849;55.992;37.252;2023-08-30T18:12:37;15.52;;;7.30;;
46110;SDS011;31849;55.992;37.252;2023-08-30T18:22:46;15.02;;;6.03;;
46110;SDS011;31849;55.992;37.252;2023-08-30T18:27:49;11.83;;;5.10;;
46110;SDS011;31849;55.992;37.252;2023-08-30T18:32:54;8.70;;;4.97;;
46110;SDS011;31849;55.992;37.252;2023-08-30T18:37:58;11.07;;;5.63;;
46110;SDS011;31849;55.992;37.252;2023-08-30T18:43:04;7.65;;;4.75;;
46110;SDS011;31849;55.992;37.252;2023-08-30T18:48:09;8.07;;;4.97;;
46110;SDS011;31849;55.992;37.252;2023-08-30T18:53:13;10.43;;;5.40;;
46110;SDS011;31849;55.992;37.252;2023-08-30T18:58:18;15.18;;;5.47;;
46110;SDS011;31849;55.992;37.252;2023-08-30T19:03:23;9.98;;;5.43;;
46110;SDS011;31849;55.992;37.252;2023-08-30T19:08:27;14.48;;;6.03;;
46110;SDS011;31849;55.992;37.252;2023-08-30T19:13:31;13.33;;;5.80;;
46110;SDS011;31849;55.992;37.252;2023-08-30T19:18:36;11.52;;;5.65;;
46110;SDS011;31849;55.992;37.252;2023-08-30T19:23:40;10.07;;;6.05;;
46110;SDS011;31849;55.992;37.252;2023-08-30T19:28:45;13.40;;;5.55;;
46110;SDS011;31849;55.992;37.252;2023-08-30T19:33:51;9.40;;;5.20;;
46110;SDS011;31849;55.992;37.252;2023-08-30T19:38:54;10.80;;;5.35;;
46110;SDS011;31849;55.992;37.252;2023-08-30T19:43:58;13.73;;;5.40;;
46110;SDS011;31849;55.992;37.252;2023-08-30T19:49:03;11.70;;;5.40;;
46110;SDS011;31849;55.992;37.252;2023-08-30T19:54:07;14.82;;;5.07;;
46110;SDS011;31849;55.992;37.252;2023-08-30T19:59:10;13.43;;;5.57;;
46110;SDS011;31849;55.992;37.252;2023-08-30T20:04:15;11.13;;;5.77;;
46110;SDS011;31849;55.992;37.252;2023-08-30T20:09:19;13.98;;;5.53;;
46110;SDS011;31849;55.992;37.252;2023-08-30T20:14:23;12.93;;;6.00;;
46110;SDS011;31849;55.992;37.252;2023-08-30T20:19:28;13.47;;;6.63;;
46110;SDS011;31849;55.992;37.252;2023-08-30T20:24:32;12.20;;;5.63;;
46110;SDS011;31849;55.992;37.252;2023-08-30T20:29:35;10.47;;;5.73;;
46110;SDS011;31849;55.992;37.252;2023-08-30T20:34:40;9.67;;;6.07;;
46110;SDS011;31849;55.992;37.252;2023-08-30T20:39:44;12.25;;;5.88;;
46110;SDS011;31849;55.992;37.252;2023-08-30T20:44:47;13.80;;;5.80;;
46110;SDS011;31849;55.992;37.252;2023-08-30T20:49:53;12.77;;;6.20;;
46110;SDS011;31849;55.992;37.252;2023-08-30T20:54:56;15.02;;;7.10;;
46110;SDS011;31849;55.992;37.252;2023-08-30T21:00:06;12.13;;;6.20;;
46110;SDS011;31849;55.992;37.252;2023-08-30T21:05:13;13.65;;;6.22;;
46110;SDS011;31849;55.992;37.252;2023-08-30T21:10:17;11.40;;;6.00;;
46110;SDS011;31849;55.992;37.252;2023-08-30T21:15:20;9.90;;;5.87;;
46110;SDS011;31849;55.992;37.252;2023-08-30T21:20:25;10.33;;;5.90;;
46110;SDS011;31849;55.992;37.252;2023-08-30T21:25:33;10.27;;;6.00;;
46110;SDS011;31849;55.992;37.252;2023-08-30T21:30:38;11.23;;;6.05;;
46110;SDS011;31849;55.992;37.252;2023-08-30T21:40:47;18.67;;;10.55;;
46110;SDS011;31849;55.992;37.252;2023-08-30T21:45:51;13.40;;;9.07;;
46110;SDS011;31849;55.992;37.252;2023-08-30T21:50:56;22.77;;;14.23;;
46110;SDS011;31849;55.992;37.252;2023-08-30T21:56:01;24.70;;;17.70;;
46110;SDS011;31849;55.992;37.252;2023-08-30T22:01:05;26.95;;;24.25;;
46110;SDS011;31849;55.992;37.252;2023-08-30T22:06:10;26.17;;;22.00;;
46110;SDS011;31849;55.992;37.252;2023-08-30T22:11:14;16.30;;;11.00;;
46110;SDS011;31849;55.992;37.252;2023-08-30T22:16:18;13.13;;;7.43;;
46110;SDS011;31849;55.992;37.252;2023-08-30T22:21:24;12.10;;;6.03;;
46110;SDS011;31849;55.992;37.252;2023-08-30T22:26:28;12.77;;;6.55;;
46110;SDS011;31849;55.992;37.252;2023-08-30T22:31:32;12.32;;;6.55;;
46110;SDS011;31849;55.992;37.252;2023-08-30T22:36:37;10.60;;;6.30;;
46110;SDS011;31849;55.992;37.252;2023-08-30T22:41:41;14.35;;;6.25;;
46110;SDS011;31849;55.992;37.252;2023-08-30T22:46:44;15.60;;;5.97;;
46110;SDS011;31849;55.992;37.252;2023-08-30T22:51:49;18.00;;;6.18;;
46110;SDS011;31849;55.992;37.252;2023-08-30T22:56:55;10.38;;;5.47;;
46110;SDS011;31849;55.992;37.252;2023-08-30T23:01:59;11.30;;;6.17;;
46110;SDS011;31849;55.992;37.252;2023-08-30T23:07:04;11.17;;;6.47;;
46110;SDS011;31849;55.992;37.252;2023-08-30T23:12:08;12.63;;;6.22;;
46110;SDS011;31849;55.992;37.252;2023-08-30T23:17:12;13.38;;;5.88;;
46110;SDS011;31849;55.992;37.252;2023-08-30T23:22:17;12.77;;;6.10;;
46110;SDS011;31849;55.992;37.252;2023-08-30T23:27:20;11.85;;;6.30;;
46110;SDS011;31849;55.992;37.252;2023-08-30T23:32:24;12.65;;;5.30;;
46110;SDS011;31849;55.992;37.252;2023-08-30T23:37:29;13.68;;;6.43;;
46110;SDS011;31849;55.992;37.252;2023-08-30T23:42:32;10.18;;;6.53;;
46110;SDS011;31849;55.992;37.252;2023-08-30T23:47:36;12.37;;;6.50;;
46110;SDS011;31849;55.992;37.252;2023-08-30T23:52:41;14.60;;;7.80;;
46110;SDS011;31849;55.992;37.252;2023-08-30T23:57:45;12.05;;;8.15;;
